createdAt,value
2019-05-13T00:02:39.920Z,19.70
2019-05-13T00:05:10.320Z,19.70
2019-05-13T00:07:40.856Z,19.70
2019-05-13T00:10:11.302Z,19.70
2019-05-13T00:12:43.913Z,19.70
2019-05-13T00:15:14.080Z,19.70
2019-05-13T00:17:47.234Z,19.70
2019-05-13T00:20:17.562Z,19.70
2019-05-13T00:22:47.983Z,19.60
2019-05-13T00:25:18.348Z,19.60
2019-05-13T00:27:48.836Z,19.70
2019-05-13T00:30:20.297Z,19.70
2019-05-13T00:32:50.748Z,19.60
2019-05-13T00:35:23.176Z,19.70
2019-05-13T00:37:54.271Z,19.60
2019-05-13T00:40:24.853Z,19.70
2019-05-13T00:42:55.429Z,19.60
2019-05-13T00:45:45.268Z,19.60
2019-05-13T00:48:15.641Z,19.60
2019-05-13T00:50:46.045Z,19.60
2019-05-13T00:53:16.417Z,19.60
2019-05-13T00:55:46.857Z,19.60
2019-05-13T00:58:17.273Z,19.60
2019-05-13T01:00:47.571Z,19.60
2019-05-13T01:03:17.952Z,19.60
2019-05-13T01:05:48.324Z,19.60
2019-05-13T01:08:18.801Z,19.60
2019-05-13T01:10:49.368Z,19.60
2019-05-13T01:13:19.770Z,19.60
2019-05-13T01:15:50.235Z,19.60
2019-05-13T01:18:20.606Z,19.60
2019-05-13T01:20:51.011Z,19.60
2019-05-13T01:23:23.823Z,19.60
2019-05-13T01:25:54.424Z,19.60
2019-05-13T01:28:25.116Z,19.60
2019-05-13T01:30:55.539Z,19.50
2019-05-13T01:33:26.041Z,19.60
2019-05-13T01:36:08.404Z,19.50
2019-05-13T01:38:39.031Z,19.50
2019-05-13T01:41:09.391Z,19.50
2019-05-13T01:43:39.857Z,19.50
2019-05-13T01:46:10.314Z,19.50
2019-05-13T01:48:40.679Z,19.50
2019-05-13T01:51:11.093Z,19.50
2019-05-13T01:53:43.867Z,19.50
2019-05-13T01:56:14.111Z,19.50
2019-05-13T01:58:45.047Z,19.50
2019-05-13T02:01:15.552Z,19.50
2019-05-13T02:03:45.941Z,19.50
2019-05-13T02:06:16.248Z,19.50
2019-05-13T02:08:46.663Z,19.50
2019-05-13T02:11:17.128Z,19.50
2019-05-13T02:13:47.635Z,19.50
2019-05-13T02:16:18.093Z,19.50
2019-05-13T02:18:48.615Z,19.50
2019-05-13T02:21:18.984Z,19.40
2019-05-13T02:23:53.486Z,19.50
2019-05-13T02:26:24.014Z,19.40
2019-05-13T02:28:55.783Z,19.50
2019-05-13T02:31:40.026Z,19.40
2019-05-13T02:33:58.249Z,19.40
2019-05-13T02:36:28.712Z,19.40
2019-05-13T02:39:02.238Z,19.40
2019-05-13T02:41:34.092Z,19.40
2019-05-13T02:44:05.888Z,19.40
2019-05-13T02:46:36.291Z,19.40
2019-05-13T02:49:06.670Z,19.40
2019-05-13T02:51:37.068Z,19.40
2019-05-13T02:54:07.485Z,19.40
2019-05-13T02:56:37.849Z,19.40
2019-05-13T02:59:08.179Z,19.40
2019-05-13T03:01:38.633Z,19.40
2019-05-13T03:04:09.097Z,19.40
2019-05-13T03:06:43.258Z,19.40
2019-05-13T03:09:12.719Z,19.40
2019-05-13T03:11:43.349Z,19.40
2019-05-13T03:14:13.737Z,19.40
2019-05-13T03:16:53.060Z,19.40
2019-05-13T03:19:23.552Z,19.40
2019-05-13T03:21:53.867Z,19.40
2019-05-13T03:24:24.327Z,19.40
2019-05-13T03:26:54.906Z,19.30
2019-05-13T03:29:25.373Z,19.30
2019-05-13T03:31:57.332Z,19.30
2019-05-13T03:34:44.748Z,19.30
2019-05-13T03:37:15.723Z,19.30
2019-05-13T03:39:44.736Z,19.30
2019-05-13T03:42:15.133Z,19.30
2019-05-13T03:44:45.527Z,19.30
2019-05-13T03:47:15.988Z,19.30
2019-05-13T03:49:48.588Z,19.30
2019-05-13T03:52:22.261Z,19.30
2019-05-13T03:54:52.210Z,19.30
2019-05-13T03:57:23.332Z,19.30
2019-05-13T03:59:53.867Z,19.30
2019-05-13T04:02:24.286Z,19.30
2019-05-13T04:04:58.626Z,19.30
2019-05-13T04:07:26.782Z,19.30
2019-05-13T04:09:57.048Z,19.30
2019-05-13T04:12:28.536Z,19.30
2019-05-13T04:14:59.005Z,19.30
2019-05-13T04:17:32.088Z,19.30
2019-05-13T04:20:02.960Z,19.30
2019-05-13T04:22:33.757Z,19.30
2019-05-13T04:25:04.139Z,19.30
2019-05-13T04:27:34.427Z,19.30
2019-05-13T04:30:24.046Z,19.30
2019-05-13T04:32:54.569Z,19.30
2019-05-13T04:35:25.058Z,19.30
2019-05-13T04:37:55.580Z,19.30
2019-05-13T04:40:26.009Z,19.30
2019-05-13T04:42:56.343Z,19.30
2019-05-13T04:45:38.395Z,19.20
2019-05-13T04:48:12.457Z,19.20
2019-05-13T04:51:03.072Z,19.30
2019-05-13T04:53:33.398Z,19.30
2019-05-13T04:56:05.185Z,19.30
2019-05-13T04:58:35.637Z,19.30
2019-05-13T05:01:52.252Z,19.20
2019-05-13T05:04:30.504Z,19.30
2019-05-13T05:07:12.605Z,19.30
2019-05-13T05:10:37.318Z,19.30
2019-05-13T05:13:35.050Z,19.20
2019-05-13T05:16:33.342Z,19.30
2019-05-13T05:19:47.579Z,19.20
2019-05-13T05:23:11.209Z,19.20
2019-05-13T05:25:53.230Z,19.20
2019-05-13T05:28:57.802Z,19.20
2019-05-13T05:31:41.424Z,19.30
2019-05-13T05:34:37.539Z,19.20
2019-05-13T05:37:47.978Z,19.30
2019-05-13T05:40:30.988Z,19.20
2019-05-13T05:42:51.793Z,19.30
2019-05-13T05:45:22.244Z,19.30
2019-05-13T05:47:54.535Z,19.20
2019-05-13T05:50:24.940Z,19.20
2019-05-13T05:52:55.422Z,19.30
2019-05-13T05:55:25.689Z,19.20
2019-05-13T05:57:56.201Z,19.30
2019-05-13T06:00:26.611Z,19.30
2019-05-13T06:02:58.115Z,19.30
2019-05-13T06:07:59.090Z,19.30
2019-05-13T06:10:44.125Z,19.30
2019-05-13T06:13:06.637Z,19.40
2019-05-13T06:15:37.200Z,19.40
2019-05-13T06:18:07.909Z,19.40
2019-05-13T06:20:38.421Z,19.40
2019-05-13T06:23:11.338Z,19.50
2019-05-13T06:25:43.658Z,19.50
2019-05-13T06:28:17.767Z,19.50
2019-05-13T06:32:44.276Z,19.50
2019-05-13T06:35:16.625Z,19.60
2019-05-13T06:37:47.246Z,19.60
2019-05-13T06:40:17.994Z,19.50
2019-05-13T06:42:48.649Z,19.50
2019-05-13T06:45:21.453Z,19.50
2019-05-13T06:47:52.244Z,19.50
2019-05-13T06:50:26.616Z,19.50
2019-05-13T06:53:21.665Z,19.40
2019-05-13T06:58:22.241Z,19.40
2019-05-13T07:00:57.925Z,19.40
2019-05-13T07:03:27.290Z,19.40
2019-05-13T07:05:57.851Z,19.40
2019-05-13T07:08:31.514Z,19.40
2019-05-13T07:11:17.134Z,19.40
2019-05-13T07:13:36.325Z,19.40
2019-05-13T07:16:07.025Z,19.40
2019-05-13T07:18:41.459Z,19.40
2019-05-13T07:21:11.860Z,19.40
2019-05-13T07:23:43.738Z,19.40
2019-05-13T07:26:23.226Z,19.40
2019-05-13T07:28:55.013Z,19.40
2019-05-13T07:31:25.827Z,19.40
2019-05-13T07:34:05.080Z,19.40
2019-05-13T07:39:26.847Z,19.50
2019-05-13T07:42:06.722Z,19.60
2019-05-13T07:44:37.246Z,19.70
2019-05-13T07:47:08.026Z,19.70
2019-05-13T07:49:38.993Z,19.80
2019-05-13T07:52:11.706Z,19.80
2019-05-13T08:05:36.351Z,19.90
2019-05-13T08:13:18.601Z,20.30
2019-05-13T08:15:49.559Z,20.30
2019-05-13T08:23:48.763Z,20.40
2019-05-13T08:26:32.556Z,20.40
2019-05-13T08:29:06.205Z,20.40
2019-05-13T08:31:38.491Z,20.40
2019-05-13T08:34:15.169Z,20.50
2019-05-13T08:36:58.239Z,20.50
2019-05-13T08:39:35.808Z,20.60
2019-05-13T08:42:15.004Z,20.60
2019-05-13T08:47:26.456Z,20.60
2019-05-13T08:50:00.621Z,20.60
2019-05-13T08:52:32.414Z,20.60
2019-05-13T08:55:03.007Z,20.70
2019-05-13T08:57:37.647Z,20.70
2019-05-13T09:00:13.712Z,20.70
2019-05-13T09:02:43.825Z,20.70
2019-05-13T09:05:14.840Z,20.70
2019-05-13T09:07:45.479Z,20.70
2019-05-13T09:10:28.210Z,20.70
2019-05-13T09:13:01.654Z,20.80
2019-05-13T09:15:33.215Z,20.80
2019-05-13T09:18:11.464Z,20.80
2019-05-13T09:20:41.980Z,20.80
2019-05-13T09:23:15.291Z,20.80
2019-05-13T09:25:45.928Z,20.80
2019-05-13T09:28:22.244Z,20.80
2019-05-13T09:30:56.967Z,20.90
2019-05-13T09:33:32.562Z,20.90
2019-05-13T09:36:05.246Z,20.90
2019-05-13T09:38:36.908Z,20.90
2019-05-13T09:41:16.064Z,20.90
2019-05-13T09:43:46.619Z,20.90
2019-05-13T09:46:17.294Z,21.00
2019-05-13T09:48:47.918Z,21.00
2019-05-13T09:51:21.490Z,21.00
2019-05-13T09:53:54.666Z,21.00
2019-05-13T09:56:26.170Z,21.10
2019-05-13T09:59:01.774Z,21.10
2019-05-13T10:01:33.999Z,21.10
2019-05-13T10:04:05.700Z,21.20
2019-05-13T10:06:36.342Z,21.20
2019-05-13T10:09:08.319Z,21.20
2019-05-13T10:11:39.175Z,21.20
2019-05-13T10:14:11.645Z,21.10
2019-05-13T10:19:34.955Z,21.00
2019-05-13T10:24:54.136Z,21.00
2019-05-13T10:27:27.846Z,20.90
2019-05-13T10:29:58.826Z,20.90
2019-05-13T10:35:07.019Z,20.90
2019-05-13T10:37:41.777Z,20.90
2019-05-13T10:40:11.561Z,20.90
2019-05-13T10:42:43.348Z,20.90
2019-05-13T10:45:14.180Z,20.90
2019-05-13T10:47:51.934Z,20.90
2019-05-13T10:50:27.530Z,20.90
2019-05-13T10:52:55.394Z,20.80
2019-05-13T10:55:28.454Z,20.90
2019-05-13T10:58:02.906Z,20.80
2019-05-13T11:00:48.212Z,20.80
2019-05-13T11:05:33.714Z,20.80
2019-05-13T11:08:04.337Z,20.70
2019-05-13T11:10:35.662Z,20.70
2019-05-13T11:15:45.942Z,20.60
2019-05-13T11:18:23.622Z,20.60
2019-05-13T11:21:02.007Z,20.60
2019-05-13T11:23:35.085Z,20.50
2019-05-13T11:26:09.046Z,20.50
2019-05-13T11:28:52.383Z,20.50
2019-05-13T11:31:24.933Z,20.40
2019-05-13T11:34:02.996Z,20.40
2019-05-13T11:36:42.741Z,20.30
2019-05-13T11:39:15.833Z,20.30
2019-05-13T11:41:47.153Z,20.20
2019-05-13T11:44:26.331Z,20.20
2019-05-13T11:47:03.188Z,20.10
2019-05-13T11:49:35.679Z,20.10
2019-05-13T11:52:15.967Z,20.10
2019-05-13T11:55:52.024Z,20.10
2019-05-13T11:57:47.135Z,20.20
2019-05-13T12:00:42.674Z,20.20
2019-05-13T12:03:14.262Z,20.20
2019-05-13T12:05:48.501Z,20.30
2019-05-13T12:09:22.390Z,20.30
2019-05-13T12:11:58.459Z,20.20
2019-05-13T12:14:47.224Z,20.20
2019-05-13T12:17:08.680Z,20.10
2019-05-13T12:19:41.847Z,20.00
2019-05-13T12:22:15.982Z,20.00
2019-05-13T12:24:47.957Z,20.00
2019-05-13T12:27:21.561Z,20.00
2019-05-13T12:30:02.761Z,20.00
2019-05-13T12:32:33.404Z,20.00
2019-05-13T12:35:04.660Z,20.00
2019-05-13T12:37:54.163Z,20.00
2019-05-13T12:40:25.078Z,20.10
2019-05-13T12:42:56.481Z,20.10
2019-05-13T12:45:27.239Z,20.10
2019-05-13T12:48:03.167Z,20.10
2019-05-13T12:50:35.437Z,20.20
2019-05-13T12:53:06.385Z,20.20
2019-05-13T12:55:39.832Z,20.30
2019-05-13T12:58:12.131Z,20.30
2019-05-13T13:00:43.655Z,20.30
2019-05-13T13:03:18.692Z,20.40
2019-05-13T13:05:53.859Z,20.40
2019-05-13T13:08:47.708Z,20.50
2019-05-13T13:11:44.090Z,20.50
2019-05-13T13:14:24.617Z,20.50
2019-05-13T13:16:55.131Z,20.50
2019-05-13T13:19:47.658Z,20.50
2019-05-13T13:22:17.827Z,20.60
2019-05-13T13:24:58.606Z,20.60
2019-05-13T13:27:59.901Z,20.50
2019-05-13T13:30:08.245Z,20.50
2019-05-13T13:32:36.182Z,20.50
2019-05-13T13:35:07.302Z,20.50
2019-05-13T13:37:37.902Z,20.50
2019-05-13T13:40:10.486Z,20.50
2019-05-13T13:42:43.365Z,20.40
2019-05-13T13:45:16.139Z,20.40
2019-05-13T13:50:24.467Z,20.40
2019-05-13T13:52:55.043Z,20.40
2019-05-13T13:55:32.180Z,20.40
2019-05-13T13:58:02.824Z,20.40
2019-05-13T14:03:47.797Z,20.30
2019-05-13T14:06:58.942Z,20.40
2019-05-13T14:07:20.380Z,20.40
2019-05-13T14:08:51.898Z,20.40
2019-05-13T14:11:23.849Z,20.30
2019-05-13T14:13:58.035Z,20.30
2019-05-13T14:16:34.250Z,20.30
2019-05-13T14:19:01.239Z,20.30
2019-05-13T14:21:34.944Z,20.30
2019-05-13T14:24:08.558Z,20.30
2019-05-13T14:26:48.895Z,20.30
2019-05-13T14:29:22.599Z,20.30
2019-05-13T14:31:53.426Z,20.30
2019-05-13T14:34:23.408Z,20.30
2019-05-13T14:36:53.850Z,20.30
2019-05-13T14:39:36.198Z,20.30
2019-05-13T14:42:07.225Z,20.30
2019-05-13T14:44:37.718Z,20.30
2019-05-13T14:47:12.307Z,20.20
2019-05-13T14:49:42.526Z,20.30
2019-05-13T14:52:14.485Z,20.30
2019-05-13T14:54:45.063Z,20.20
2019-05-13T14:57:15.402Z,20.20
2019-05-13T14:59:45.940Z,20.20
2019-05-13T15:02:16.416Z,20.20
2019-05-13T15:04:46.785Z,20.20
2019-05-13T15:07:17.456Z,20.20
2019-05-13T15:09:51.453Z,20.20
2019-05-13T15:12:21.652Z,20.20
2019-05-13T15:14:52.569Z,20.20
2019-05-13T15:17:23.089Z,20.20
2019-05-13T15:19:53.844Z,20.20
2019-05-13T15:22:24.247Z,20.20
2019-05-13T15:24:54.737Z,20.20
2019-05-13T15:27:25.144Z,20.10
2019-05-13T15:29:55.532Z,20.20
2019-05-13T15:32:26.196Z,20.20
2019-05-13T15:34:56.634Z,20.10
2019-05-13T15:37:27.026Z,20.10
2019-05-13T15:40:12.839Z,20.10
2019-05-13T15:42:51.723Z,20.10
2019-05-13T15:45:28.201Z,20.10
2019-05-13T15:48:17.405Z,20.10
2019-05-13T15:50:51.286Z,20.10
2019-05-13T15:53:22.200Z,20.10
2019-05-13T15:55:53.810Z,20.10
2019-05-13T15:58:38.407Z,20.10
2019-05-13T16:00:56.196Z,20.10
2019-05-13T16:03:26.847Z,20.10
2019-05-13T16:05:57.267Z,20.10
2019-05-13T16:08:27.705Z,20.10
2019-05-13T16:10:58.103Z,20.10
2019-05-13T16:13:28.496Z,20.10
2019-05-13T16:16:01.316Z,20.10
2019-05-13T16:18:46.127Z,20.10
2019-05-13T16:21:19.395Z,20.10
2019-05-13T16:27:02.423Z,20.10
2019-05-13T16:29:47.483Z,20.10
2019-05-13T16:33:02.820Z,20.10
2019-05-13T16:35:34.633Z,20.10
2019-05-13T16:38:06.083Z,20.10
2019-05-13T16:40:36.928Z,20.10
2019-05-13T16:43:07.458Z,20.00
2019-05-13T16:45:37.737Z,20.10
2019-05-13T16:48:08.468Z,20.10
2019-05-13T16:50:38.842Z,20.00
2019-05-13T16:53:09.179Z,20.00
2019-05-13T16:56:01.497Z,20.00
2019-05-13T16:58:32.499Z,20.10
2019-05-13T17:01:03.338Z,20.10
2019-05-13T17:03:33.768Z,20.00
2019-05-13T17:06:04.173Z,20.00
2019-05-13T17:08:34.675Z,20.00
2019-05-13T17:11:05.015Z,20.00
2019-05-13T17:13:35.393Z,20.00
2019-05-13T17:16:05.718Z,20.00
2019-05-13T17:18:36.150Z,20.00
2019-05-13T17:21:06.577Z,20.00
2019-05-13T17:23:37.115Z,20.00
2019-05-13T17:26:07.881Z,20.00
2019-05-13T17:28:38.370Z,20.00
2019-05-13T17:31:08.785Z,20.00
2019-05-13T17:33:39.230Z,20.00
2019-05-13T17:36:09.626Z,20.00
2019-05-13T17:38:40.152Z,20.00
2019-05-13T17:41:12.259Z,20.00
2019-05-13T17:43:42.832Z,20.00
2019-05-13T17:46:13.224Z,20.00
2019-05-13T17:48:43.571Z,20.00
2019-05-13T17:51:16.475Z,20.00
2019-05-13T17:53:46.000Z,20.00
2019-05-13T17:56:16.388Z,20.00
2019-05-13T17:58:46.838Z,20.00
2019-05-13T18:01:29.017Z,20.00
2019-05-13T18:03:59.383Z,20.00
2019-05-13T18:06:29.781Z,20.00
2019-05-13T18:09:01.197Z,20.00
2019-05-13T18:11:32.915Z,19.90
2019-05-13T18:14:03.291Z,19.90
2019-05-13T18:16:33.755Z,19.90
2019-05-13T18:19:05.161Z,19.90
2019-05-13T18:21:35.553Z,19.90
2019-05-13T18:24:06.101Z,19.90
2019-05-13T18:26:36.404Z,19.90
2019-05-13T18:29:06.910Z,19.90
2019-05-13T18:31:37.314Z,19.90
2019-05-13T18:34:07.757Z,19.90
2019-05-13T18:36:38.257Z,19.90
2019-05-13T18:39:12.087Z,19.90
2019-05-13T18:41:41.666Z,19.80
2019-05-13T18:44:12.457Z,19.80
2019-05-13T18:46:43.045Z,19.80
2019-05-13T18:49:13.630Z,19.80
2019-05-13T18:51:43.947Z,19.80
2019-05-13T18:54:14.327Z,19.80
2019-05-13T18:56:46.491Z,19.70
2019-05-13T18:59:16.818Z,19.70
2019-05-13T19:01:47.151Z,19.70
2019-05-13T19:04:17.665Z,19.70
2019-05-13T19:06:48.023Z,19.70
2019-05-13T19:09:18.572Z,19.70
2019-05-13T19:11:51.171Z,19.70
2019-05-13T19:14:21.293Z,19.70
2019-05-13T19:16:51.815Z,19.70
2019-05-13T19:19:22.930Z,19.70
2019-05-13T19:21:53.604Z,19.70
2019-05-13T19:24:24.007Z,19.70
2019-05-13T19:26:54.580Z,19.70
2019-05-13T19:29:26.272Z,19.60
2019-05-13T19:31:56.927Z,19.70
2019-05-13T19:34:27.267Z,19.60
2019-05-13T19:36:57.615Z,19.60
2019-05-13T19:39:28.084Z,19.60
2019-05-13T19:41:58.551Z,19.60
2019-05-13T19:44:28.936Z,19.60
2019-05-13T19:47:01.733Z,19.60
2019-05-13T19:49:36.124Z,19.60
2019-05-13T19:52:03.597Z,19.60
2019-05-13T19:54:34.083Z,19.60
2019-05-13T19:57:04.524Z,19.60
2019-05-13T19:59:35.030Z,19.60
2019-05-13T20:02:05.536Z,19.50
2019-05-13T20:04:35.992Z,19.50
2019-05-13T20:07:06.550Z,19.50
2019-05-13T20:09:56.095Z,19.50
2019-05-13T20:12:26.577Z,19.50
2019-05-13T20:14:56.938Z,19.50
2019-05-13T20:17:27.353Z,19.50
2019-05-13T20:19:57.772Z,19.50
2019-05-13T20:22:28.151Z,19.50
2019-05-13T20:24:58.526Z,19.50
2019-05-13T20:27:29.000Z,19.50
2019-05-13T20:30:01.394Z,19.40
2019-05-13T20:32:31.461Z,19.40
2019-05-13T20:35:02.252Z,19.40
2019-05-13T20:37:32.840Z,19.40
2019-05-13T20:40:03.153Z,19.40
2019-05-13T20:42:33.516Z,19.40
2019-05-13T20:45:04.008Z,19.40
2019-05-13T20:47:34.395Z,19.40
2019-05-13T20:50:06.257Z,19.40
2019-05-13T20:52:36.633Z,19.40
2019-05-13T20:55:07.205Z,19.40
2019-05-13T20:57:38.591Z,19.40
2019-05-13T21:00:08.997Z,19.40
2019-05-13T21:02:41.670Z,19.40
2019-05-13T21:05:13.242Z,19.40
2019-05-13T21:07:43.759Z,19.40
2019-05-13T21:10:14.173Z,19.40
2019-05-13T21:12:44.615Z,19.40
2019-05-13T21:15:14.923Z,19.40
2019-05-13T21:17:45.307Z,19.40
2019-05-13T21:20:22.082Z,19.40
2019-05-13T21:22:47.619Z,19.40
2019-05-13T21:25:17.992Z,19.40
2019-05-13T21:27:48.372Z,19.40
2019-05-13T21:30:18.745Z,19.40
2019-05-13T21:32:49.082Z,19.30
2019-05-13T21:35:21.232Z,19.30
2019-05-13T21:37:51.534Z,19.30
2019-05-13T21:40:21.871Z,19.30
2019-05-13T21:42:52.791Z,19.30
2019-05-13T21:45:23.123Z,19.30
2019-05-13T21:47:53.632Z,19.30
2019-05-13T21:50:34.235Z,19.30
2019-05-13T21:52:55.980Z,19.30
2019-05-13T21:55:26.395Z,19.30
2019-05-13T21:57:56.817Z,19.30
2019-05-13T22:00:32.201Z,19.30
2019-05-13T22:03:04.442Z,19.30
2019-05-13T22:05:34.953Z,19.30
2019-05-13T22:08:05.316Z,19.30
2019-05-13T22:10:35.660Z,19.20
2019-05-13T22:13:06.087Z,19.20
2019-05-13T22:15:36.425Z,19.20
2019-05-13T22:18:06.828Z,19.20
2019-05-13T22:20:48.995Z,19.20
2019-05-13T22:23:09.324Z,19.20
2019-05-13T22:25:43.353Z,19.20
2019-05-13T22:28:12.776Z,19.20
2019-05-13T22:30:44.263Z,19.20
2019-05-13T22:33:14.670Z,19.20
2019-05-13T22:35:45.163Z,19.20
2019-05-13T22:38:15.465Z,19.20
2019-05-13T22:40:45.841Z,19.20
2019-05-13T22:43:16.310Z,19.20
2019-05-13T22:45:46.760Z,19.20
2019-05-13T22:48:17.167Z,19.20
2019-05-13T22:50:47.763Z,19.10
2019-05-13T22:53:18.143Z,19.20
2019-05-13T22:55:48.576Z,19.10
2019-05-13T22:58:19.025Z,19.10
2019-05-13T23:00:51.676Z,19.10
2019-05-13T23:03:22.372Z,19.10
2019-05-13T23:05:52.848Z,19.10
2019-05-13T23:08:23.295Z,19.10
2019-05-13T23:10:53.768Z,19.10
2019-05-13T23:13:24.103Z,19.10
2019-05-13T23:15:54.555Z,19.10
2019-05-13T23:18:25.057Z,19.10
2019-05-13T23:20:55.488Z,19.10
2019-05-13T23:23:25.933Z,19.10
2019-05-13T23:25:57.039Z,19.10
2019-05-13T23:28:27.515Z,19.10
2019-05-13T23:30:58.031Z,19.10
2019-05-13T23:33:28.363Z,19.10
2019-05-13T23:36:01.044Z,19.10
2019-05-13T23:38:42.416Z,19.10
2019-05-13T23:41:12.894Z,19.10
2019-05-13T23:43:43.436Z,19.10
2019-05-13T23:46:13.905Z,19.10
2019-05-13T23:48:44.240Z,19.10
2019-05-13T23:51:14.717Z,19.00
2019-05-13T23:53:45.172Z,19.10
2019-05-13T23:56:15.687Z,19.00
2019-05-13T23:58:45.989Z,19.10
